createdAt,value
2017-11-03T00:01:18.739Z,11.38
2017-11-03T00:03:45.464Z,13.18
2017-11-03T00:06:11.469Z,13.20
2017-11-03T00:08:37.469Z,15.85
2017-11-03T00:11:03.432Z,12.25
2017-11-03T00:13:29.426Z,14.32
2017-11-03T00:15:55.473Z,14.05
2017-11-03T00:18:21.438Z,11.00
2017-11-03T00:20:47.456Z,11.93
2017-11-03T00:23:13.429Z,16.27
2017-11-03T00:25:39.446Z,14.50
2017-11-03T00:28:06.489Z,11.50
2017-11-03T00:30:32.504Z,10.95
2017-11-03T00:32:58.498Z,10.00
2017-11-03T00:35:24.507Z,17.33
2017-11-03T00:37:51.241Z,17.70
2017-11-03T00:40:17.977Z,15.13
2017-11-03T00:42:44.724Z,13.60
2017-11-03T00:45:10.697Z,19.45
2017-11-03T00:47:36.720Z,15.35
2017-11-03T00:50:02.764Z,20.10
2017-11-03T00:52:28.745Z,16.47
2017-11-03T00:54:54.769Z,13.80
2017-11-03T00:57:20.847Z,14.27
2017-11-03T00:59:47.586Z,13.85
2017-11-03T01:02:14.317Z,12.53
2017-11-03T01:04:41.037Z,14.38
2017-11-03T01:07:07.017Z,17.25
2017-11-03T01:09:33.002Z,17.67
2017-11-03T01:11:59.752Z,16.35
2017-11-03T01:14:26.475Z,15.20
2017-11-03T01:16:53.241Z,18.65
2017-11-03T01:19:19.233Z,15.93
2017-11-03T01:21:45.208Z,19.73
2017-11-03T01:24:11.193Z,14.68
2017-11-03T01:26:37.937Z,19.70
2017-11-03T01:29:04.662Z,18.15
2017-11-03T01:31:31.432Z,14.25
2017-11-03T01:33:57.443Z,19.87
2017-11-03T01:36:23.444Z,19.30
2017-11-03T01:38:50.198Z,21.20
2017-11-03T01:41:16.257Z,19.27
2017-11-03T01:43:42.237Z,15.70
2017-11-03T01:46:08.972Z,18.40
2017-11-03T01:48:35.705Z,18.50
2017-11-03T01:51:02.433Z,18.30
2017-11-03T01:53:28.410Z,16.00
2017-11-03T01:55:54.422Z,20.20
2017-11-03T01:58:20.409Z,14.85
2017-11-03T02:00:47.137Z,20.30
2017-11-03T02:03:13.133Z,22.42
2017-11-03T02:05:39.146Z,19.40
2017-11-03T02:08:05.135Z,19.80
2017-11-03T02:10:31.433Z,19.27
2017-11-03T02:12:57.433Z,22.08
2017-11-03T02:15:23.414Z,18.02
2017-11-03T02:17:49.423Z,19.58
2017-11-03T02:20:16.134Z,22.37
2017-11-03T02:22:42.113Z,18.43
2017-11-03T02:25:08.355Z,19.52
2017-11-03T02:27:34.352Z,16.20
2017-11-03T02:30:00.374Z,17.80
2017-11-03T02:32:26.674Z,18.37
2017-11-03T02:34:53.389Z,22.80
2017-11-03T02:37:19.375Z,20.80
2017-11-03T02:39:45.417Z,19.75
2017-11-03T02:42:11.407Z,19.05
2017-11-03T02:44:37.430Z,17.55
2017-11-03T02:47:03.452Z,19.00
2017-11-03T02:49:29.463Z,25.52
2017-11-03T02:51:55.441Z,23.08
2017-11-03T02:54:21.444Z,19.35
2017-11-03T02:56:47.435Z,22.30
2017-11-03T02:59:13.426Z,20.43
2017-11-03T03:01:40.184Z,15.02
2017-11-03T03:04:06.186Z,20.42
2017-11-03T03:06:32.301Z,23.23
2017-11-03T03:08:58.317Z,16.70
2017-11-03T03:11:24.325Z,20.10
2017-11-03T03:13:50.328Z,17.23
2017-11-03T03:16:16.359Z,20.42
2017-11-03T03:18:42.351Z,18.52
2017-11-03T03:21:08.457Z,22.67
2017-11-03T03:23:34.499Z,14.90
2017-11-03T03:26:00.531Z,21.33
2017-11-03T03:28:26.637Z,19.02
2017-11-03T03:30:53.375Z,18.27
2017-11-03T03:33:20.143Z,16.85
2017-11-03T03:35:46.149Z,18.25
2017-11-03T03:38:12.156Z,17.02
2017-11-03T03:40:45.960Z,19.35
2017-11-03T03:43:12.718Z,19.58
2017-11-03T03:45:38.674Z,22.10
2017-11-03T03:48:04.692Z,20.85
2017-11-03T03:50:30.773Z,20.55
2017-11-03T03:52:56.746Z,19.25
2017-11-03T03:55:22.973Z,21.40
2017-11-03T03:57:48.959Z,21.70
2017-11-03T04:00:14.926Z,26.60
2017-11-03T04:02:40.920Z,24.15
2017-11-03T04:05:06.889Z,20.80
2017-11-03T04:07:33.593Z,20.37
2017-11-03T04:09:59.589Z,19.62
2017-11-03T04:12:25.613Z,19.70
2017-11-03T04:14:51.605Z,20.45
2017-11-03T04:17:18.316Z,17.55
2017-11-03T04:19:45.037Z,20.85
2017-11-03T04:22:11.014Z,21.95
2017-11-03T04:24:37.255Z,19.08
2017-11-03T04:27:03.237Z,20.95
2017-11-03T04:29:29.215Z,18.02
2017-11-03T04:31:55.208Z,21.80
2017-11-03T04:34:21.190Z,20.65
2017-11-03T04:36:47.181Z,21.05
2017-11-03T04:39:13.190Z,22.07
2017-11-03T04:41:39.173Z,18.90
2017-11-03T04:44:05.893Z,21.50
2017-11-03T04:46:31.912Z,19.70
2017-11-03T04:48:57.893Z,22.05
2017-11-03T04:51:23.891Z,19.40
2017-11-03T04:53:50.637Z,22.23
2017-11-03T04:56:16.605Z,19.48
2017-11-03T04:58:42.602Z,24.52
2017-11-03T05:01:08.609Z,22.33
2017-11-03T05:03:34.581Z,18.53
2017-11-03T05:06:00.557Z,18.80
2017-11-03T05:08:26.552Z,23.97
2017-11-03T05:10:53.256Z,19.15
2017-11-03T05:13:19.264Z,19.15
2017-11-03T05:15:45.272Z,21.30
2017-11-03T05:18:11.229Z,19.27
2017-11-03T05:20:37.219Z,23.33
2017-11-03T05:23:03.501Z,18.08
2017-11-03T05:25:30.211Z,19.80
2017-11-03T05:27:56.210Z,17.10
2017-11-03T05:30:22.194Z,22.98
2017-11-03T05:32:49.261Z,21.35
2017-11-03T05:35:16.246Z,21.07
2017-11-03T05:37:42.224Z,18.65
2017-11-03T05:40:08.197Z,21.27
2017-11-03T05:42:34.194Z,23.10
2017-11-03T05:45:00.183Z,19.80
2017-11-03T05:47:26.374Z,22.98
2017-11-03T05:49:52.346Z,23.15
2017-11-03T05:52:18.334Z,19.30
2017-11-03T05:54:45.181Z,18.15
2017-11-03T05:57:11.909Z,20.17
2017-11-03T05:59:37.913Z,19.83
2017-11-03T06:02:03.934Z,17.20
2017-11-03T06:04:29.914Z,21.37
2017-11-03T06:06:55.882Z,20.62
2017-11-03T06:09:21.877Z,20.02
2017-11-03T06:11:47.862Z,18.55
2017-11-03T06:14:13.932Z,19.13
2017-11-03T06:16:39.954Z,20.88
2017-11-03T06:19:05.943Z,22.52
2017-11-03T06:21:31.945Z,23.67
2017-11-03T06:23:58.679Z,21.95
2017-11-03T06:26:25.438Z,25.45
2017-11-03T06:28:51.418Z,23.90
2017-11-03T06:31:17.402Z,26.30
2017-11-03T06:33:43.395Z,23.67
2017-11-03T06:36:09.403Z,27.67
2017-11-03T06:38:36.179Z,24.87
2017-11-03T06:41:02.153Z,24.23
2017-11-03T06:43:28.143Z,32.50
2017-11-03T06:45:54.149Z,29.52
2017-11-03T06:48:20.125Z,29.98
2017-11-03T06:50:46.849Z,30.85
2017-11-03T06:53:12.865Z,34.03
2017-11-03T06:55:38.861Z,40.60
2017-11-03T06:58:04.842Z,40.70
2017-11-03T07:00:31.606Z,41.35
2017-11-03T07:02:57.584Z,50.17
2017-11-03T07:05:23.557Z,49.80
2017-11-03T07:07:49.549Z,59.05
2017-11-03T07:10:16.270Z,47.53
2017-11-03T07:12:43.003Z,50.55
2017-11-03T07:15:09.764Z,45.90
2017-11-03T07:17:36.500Z,48.13
2017-11-03T07:20:03.211Z,40.47
2017-11-03T07:22:29.201Z,40.05
2017-11-03T07:24:55.185Z,42.10
2017-11-03T07:27:21.905Z,34.90
2017-11-03T07:29:48.636Z,36.10
2017-11-03T07:32:14.622Z,33.55
2017-11-03T07:34:40.589Z,33.17
2017-11-03T07:37:08.152Z,33.55
2017-11-03T07:39:34.890Z,34.33
2017-11-03T07:42:01.605Z,30.27
2017-11-03T07:44:27.618Z,34.58
2017-11-03T07:46:53.594Z,37.60
2017-11-03T07:49:19.573Z,33.60
2017-11-03T07:51:45.578Z,34.03
2017-11-03T07:54:11.545Z,33.88
2017-11-03T07:56:38.281Z,33.58
2017-11-03T07:59:05.045Z,32.30
2017-11-03T08:01:31.020Z,39.53
2017-11-03T08:03:57.817Z,40.17
2017-11-03T08:06:23.818Z,45.75
2017-11-03T08:08:50.521Z,41.72
2017-11-03T08:11:16.505Z,56.28
2017-11-03T08:13:42.485Z,73.70
2017-11-03T08:16:09.209Z,82.10
2017-11-03T08:18:35.185Z,81.63
2017-11-03T08:21:01.357Z,77.25
2017-11-03T08:23:27.324Z,76.07
2017-11-03T08:25:53.336Z,78.40
2017-11-03T08:28:19.367Z,70.97
2017-11-03T08:30:46.065Z,60.73
2017-11-03T08:33:12.026Z,57.33
2017-11-03T08:35:38.038Z,51.05
2017-11-03T08:38:04.022Z,49.38
2017-11-03T08:40:30.003Z,48.77
2017-11-03T08:42:56.003Z,51.00
2017-11-03T08:45:29.124Z,47.83
2017-11-03T08:47:55.180Z,49.85
2017-11-03T08:50:21.182Z,45.97
2017-11-03T08:52:47.179Z,43.37
2017-11-03T08:55:13.170Z,45.05
2017-11-03T08:57:39.893Z,43.37
2017-11-03T09:00:06.615Z,43.85
2017-11-03T09:02:33.677Z,40.95
2017-11-03T09:04:59.647Z,40.58
2017-11-03T09:07:25.624Z,42.13
2017-11-03T09:09:52.597Z,45.40
2017-11-03T09:12:18.575Z,48.40
2017-11-03T09:14:44.563Z,42.38
2017-11-03T09:17:10.589Z,43.40
2017-11-03T09:19:36.570Z,39.55
2017-11-03T09:22:03.283Z,40.83
2017-11-03T09:24:29.280Z,108.07
2017-11-03T09:26:55.269Z,101.60
2017-11-03T09:29:21.258Z,41.28
2017-11-03T09:31:48.029Z,40.77
2017-11-03T09:34:14.026Z,39.40
2017-11-03T09:36:40.740Z,38.30
2017-11-03T09:39:07.092Z,39.35
2017-11-03T09:41:33.828Z,42.72
2017-11-03T09:44:00.555Z,39.53
2017-11-03T09:46:26.620Z,40.10
2017-11-03T09:48:52.621Z,37.45
2017-11-03T09:51:19.353Z,40.40
2017-11-03T09:53:46.106Z,40.25
2017-11-03T09:56:12.835Z,37.47
2017-11-03T09:58:39.579Z,36.60
2017-11-03T10:01:06.342Z,40.65
2017-11-03T10:03:32.332Z,37.25
2017-11-03T10:05:59.049Z,35.43
2017-11-03T10:08:25.077Z,40.65
2017-11-03T10:10:51.041Z,35.00
2017-11-03T10:13:17.034Z,35.90
2017-11-03T10:15:43.035Z,33.30
2017-11-03T10:18:09.025Z,31.52
2017-11-03T10:20:35.013Z,31.45
2017-11-03T10:23:01.751Z,30.52
2017-11-03T10:25:28.477Z,29.23
2017-11-03T10:27:54.460Z,139.00
2017-11-03T10:30:20.427Z,39.97
2017-11-03T10:32:47.138Z,30.98
2017-11-03T10:35:13.133Z,28.87
2017-11-03T10:37:39.112Z,31.05
2017-11-03T10:40:05.839Z,28.55
2017-11-03T10:42:32.579Z,27.33
2017-11-03T10:44:58.565Z,28.75
2017-11-03T10:47:24.533Z,23.50
2017-11-03T10:49:51.271Z,28.25
2017-11-03T10:52:17.995Z,34.75
2017-11-03T10:54:44.336Z,32.97
2017-11-03T10:57:11.069Z,28.30
2017-11-03T10:59:37.046Z,28.33
2017-11-03T11:02:04.149Z,26.13
2017-11-03T11:04:30.879Z,26.00
2017-11-03T11:06:56.853Z,24.25
2017-11-03T11:09:23.132Z,22.10
2017-11-03T11:11:49.845Z,20.40
2017-11-03T11:14:15.822Z,21.40
2017-11-03T11:16:41.821Z,21.17
2017-11-03T11:19:08.546Z,20.60
2017-11-03T11:21:34.502Z,23.10
2017-11-03T11:24:00.501Z,22.83
2017-11-03T11:26:27.209Z,18.60
2017-11-03T11:28:53.198Z,23.05
2017-11-03T11:31:19.194Z,20.67
2017-11-03T11:33:45.922Z,20.45
2017-11-03T11:36:12.657Z,20.45
2017-11-03T11:38:39.429Z,19.23
2017-11-03T11:41:05.413Z,19.85
2017-11-03T11:43:31.392Z,24.53
2017-11-03T11:45:57.390Z,18.50
2017-11-03T11:48:23.374Z,19.30
2017-11-03T11:50:49.350Z,20.42
2017-11-03T11:53:15.350Z,17.95
2017-11-03T11:55:41.350Z,17.90
2017-11-03T11:58:08.066Z,19.00
2017-11-03T12:00:34.092Z,19.83
2017-11-03T12:03:00.073Z,17.00
2017-11-03T12:05:26.054Z,16.35
2017-11-03T12:07:53.063Z,17.12
2017-11-03T12:10:19.038Z,18.57
2017-11-03T12:12:45.762Z,17.70
2017-11-03T12:15:12.490Z,18.77
2017-11-03T12:17:38.449Z,17.47
2017-11-03T12:20:04.441Z,21.83
2017-11-03T12:22:31.181Z,20.75
2017-11-03T12:24:57.900Z,19.87
2017-11-03T12:27:24.862Z,15.55
2017-11-03T12:29:51.571Z,18.15
2017-11-03T12:32:17.540Z,17.33
2017-11-03T12:34:44.598Z,14.93
2017-11-03T12:37:10.634Z,13.60
2017-11-03T12:39:36.646Z,15.75
2017-11-03T12:42:02.640Z,15.55
2017-11-03T12:44:29.381Z,14.25
2017-11-03T12:46:56.117Z,15.07
2017-11-03T12:49:22.863Z,13.60
2017-11-03T12:51:49.583Z,13.10
2017-11-03T12:54:16.314Z,13.55
2017-11-03T12:56:42.315Z,13.85
2017-11-03T12:59:08.299Z,12.77
2017-11-03T13:01:34.266Z,19.13
2017-11-03T13:04:00.283Z,15.55
2017-11-03T13:06:26.263Z,23.00
2017-11-03T13:08:52.262Z,17.48
2017-11-03T13:11:18.501Z,19.25
2017-11-03T13:13:45.225Z,15.07
2017-11-03T13:16:11.207Z,11.98
2017-11-03T13:18:37.488Z,13.70
2017-11-03T13:21:04.198Z,11.82
2017-11-03T13:23:30.478Z,15.87
2017-11-03T13:25:56.898Z,14.87
2017-11-03T13:28:22.881Z,14.63
2017-11-03T13:30:48.884Z,15.57
2017-11-03T13:33:14.890Z,15.73
2017-11-03T13:35:40.884Z,16.20
2017-11-03T13:38:06.870Z,15.60
2017-11-03T13:40:32.869Z,15.45
2017-11-03T13:42:58.845Z,16.75
2017-11-03T13:45:25.600Z,14.90
2017-11-03T13:47:51.556Z,16.10
2017-11-03T13:50:17.552Z,19.23
2017-11-03T13:52:43.552Z,13.55
2017-11-03T13:55:10.269Z,16.65
2017-11-03T13:57:36.238Z,15.47
2017-11-03T14:00:02.262Z,16.98
2017-11-03T14:02:28.221Z,14.80
2017-11-03T14:04:54.228Z,18.75
2017-11-03T14:07:20.236Z,14.60
2017-11-03T14:09:46.214Z,15.40
2017-11-03T14:12:12.932Z,16.00
2017-11-03T14:14:39.694Z,12.93
2017-11-03T14:17:06.414Z,16.50
2017-11-03T14:19:33.150Z,15.55
2017-11-03T14:21:59.158Z,14.45
2017-11-03T14:24:25.277Z,19.67
2017-11-03T14:26:51.297Z,16.50
2017-11-03T14:29:17.292Z,14.45
2017-11-03T14:31:43.269Z,17.33
2017-11-03T14:34:09.259Z,15.48
2017-11-03T14:36:35.524Z,15.33
2017-11-03T14:39:02.258Z,16.05
2017-11-03T14:41:29.054Z,16.12
2017-11-03T14:43:55.057Z,14.63
2017-11-03T14:46:21.056Z,14.53
2017-11-03T14:48:47.814Z,14.25
2017-11-03T14:51:13.910Z,16.83
2017-11-03T14:53:40.662Z,15.52
2017-11-03T14:56:07.379Z,17.60
2017-11-03T14:58:33.366Z,13.43
2017-11-03T15:00:59.340Z,15.77
2017-11-03T15:03:26.054Z,15.02
2017-11-03T15:05:52.076Z,15.80
2017-11-03T15:08:18.089Z,14.77
2017-11-03T15:10:44.097Z,17.25
2017-11-03T15:13:10.080Z,20.85
2017-11-03T15:15:36.059Z,13.13
2017-11-03T15:18:02.053Z,14.32
2017-11-03T15:20:28.334Z,16.05
2017-11-03T15:22:55.182Z,18.17
2017-11-03T15:25:21.919Z,16.33
2017-11-03T15:27:48.710Z,14.38
2017-11-03T15:30:14.714Z,19.10
2017-11-03T15:32:40.704Z,16.98
2017-11-03T15:35:07.443Z,19.42
2017-11-03T15:37:34.149Z,15.57
2017-11-03T15:40:00.135Z,18.48
2017-11-03T15:42:26.165Z,19.75
2017-11-03T15:44:52.160Z,17.98
2017-11-03T15:47:18.137Z,21.30
2017-11-03T15:49:44.402Z,17.83
2017-11-03T15:52:11.122Z,17.55
2017-11-03T15:54:37.113Z,22.80
2017-11-03T15:57:03.273Z,25.93
2017-11-03T15:59:29.270Z,17.23
2017-11-03T16:01:55.258Z,22.17
2017-11-03T16:04:21.247Z,18.60
2017-11-03T16:06:48.310Z,25.75
2017-11-03T16:09:14.314Z,25.47
2017-11-03T16:11:41.042Z,18.70
2017-11-03T16:14:07.042Z,23.02
2017-11-03T16:16:33.021Z,22.62
2017-11-03T16:18:58.997Z,18.73
2017-11-03T16:21:24.999Z,23.10
2017-11-03T16:23:51.373Z,23.20
2017-11-03T16:26:18.090Z,20.70
2017-11-03T16:28:44.103Z,128.98
2017-11-03T16:31:10.457Z,77.53
2017-11-03T16:33:44.350Z,21.98
2017-11-03T16:36:10.326Z,25.60
2017-11-03T16:38:36.349Z,26.42
2017-11-03T16:41:02.313Z,22.37
2017-11-03T16:43:28.324Z,20.27
2017-11-03T16:45:54.324Z,19.83
2017-11-03T16:48:20.318Z,24.40
2017-11-03T16:50:46.281Z,25.83
2017-11-03T16:53:12.265Z,22.27
2017-11-03T16:55:38.260Z,23.02
2017-11-03T16:58:05.012Z,19.17
2017-11-03T17:00:31.735Z,25.47
2017-11-03T17:02:58.459Z,20.10
2017-11-03T17:05:24.452Z,20.50
2017-11-03T17:07:50.432Z,26.40
2017-11-03T17:10:17.162Z,20.60
2017-11-03T17:12:44.104Z,21.10
2017-11-03T17:15:10.834Z,25.02
2017-11-03T17:17:36.821Z,22.50
2017-11-03T17:20:03.650Z,21.65
2017-11-03T17:22:29.629Z,17.08
2017-11-03T17:24:56.354Z,21.77
2017-11-03T17:27:22.334Z,19.65
2017-11-03T17:29:48.350Z,22.97
2017-11-03T17:32:14.350Z,18.92
2017-11-03T17:34:41.082Z,23.83
2017-11-03T17:37:07.797Z,24.50
2017-11-03T17:39:33.799Z,19.55
2017-11-03T17:42:00.063Z,22.35
2017-11-03T17:44:26.792Z,21.90
2017-11-03T17:46:52.817Z,24.60
2017-11-03T17:49:19.145Z,23.50
2017-11-03T17:51:45.118Z,22.17
2017-11-03T17:54:11.113Z,26.92
2017-11-03T17:56:37.130Z,24.50
2017-11-03T17:59:03.135Z,38.08
2017-11-03T18:01:29.114Z,128.73
2017-11-03T18:03:55.107Z,155.20
2017-11-03T18:06:21.378Z,59.63
2017-11-03T18:08:47.360Z,154.82
2017-11-03T18:11:13.638Z,69.87
2017-11-03T18:13:39.654Z,163.30
2017-11-03T18:16:05.641Z,249.40
2017-11-03T18:18:31.647Z,57.20
2017-11-03T18:20:57.606Z,21.27
2017-11-03T18:23:23.615Z,18.10
2017-11-03T18:25:49.650Z,19.98
2017-11-03T18:28:15.684Z,24.90
2017-11-03T18:30:41.685Z,19.75
2017-11-03T18:33:07.690Z,21.27
2017-11-03T18:35:33.678Z,19.77
2017-11-03T18:37:59.638Z,21.57
2017-11-03T18:40:25.833Z,16.55
2017-11-03T18:42:52.541Z,18.77
2017-11-03T18:45:18.545Z,18.30
2017-11-03T18:47:44.538Z,22.15
2017-11-03T18:50:10.582Z,17.30
2017-11-03T18:52:36.584Z,19.00
2017-11-03T18:55:02.561Z,16.52
2017-11-03T18:57:28.565Z,16.48
2017-11-03T18:59:54.559Z,18.45
2017-11-03T19:02:20.566Z,15.90
2017-11-03T19:04:46.606Z,18.83
2017-11-03T19:07:12.622Z,18.10
2017-11-03T19:09:38.606Z,18.77
2017-11-03T19:12:05.558Z,19.08
2017-11-03T19:14:32.273Z,16.70
2017-11-03T19:16:58.345Z,18.33
2017-11-03T19:19:24.337Z,20.13
2017-11-03T19:21:50.362Z,18.27
2017-11-03T19:24:17.234Z,20.48
2017-11-03T19:26:43.262Z,19.15
2017-11-03T19:29:09.259Z,20.17
2017-11-03T19:31:35.998Z,21.40
2017-11-03T19:34:03.045Z,23.43
2017-11-03T19:36:29.767Z,25.67
2017-11-03T19:38:55.790Z,23.10
2017-11-03T19:41:21.801Z,29.77
2017-11-03T19:43:47.772Z,29.67
2017-11-03T19:46:13.761Z,25.77
2017-11-03T19:48:40.811Z,28.12
2017-11-03T19:51:07.562Z,28.42
2017-11-03T19:53:34.295Z,30.57
2017-11-03T19:56:01.035Z,36.97
2017-11-03T19:58:27.762Z,306.48
2017-11-03T20:00:53.779Z,87.25
2017-11-03T20:03:20.527Z,30.73
2017-11-03T20:05:47.300Z,34.75
2017-11-03T20:08:13.600Z,35.67
2017-11-03T20:10:40.345Z,32.95
2017-11-03T20:13:07.105Z,34.03
2017-11-03T20:15:33.145Z,38.97
2017-11-03T20:17:59.129Z,37.20
2017-11-03T20:20:32.835Z,38.92
2017-11-03T20:22:59.576Z,39.35
2017-11-03T20:25:25.562Z,35.90
2017-11-03T20:27:51.697Z,38.30
2017-11-03T20:30:17.731Z,39.03
2017-11-03T20:32:44.611Z,36.78
2017-11-03T20:35:10.657Z,40.28
2017-11-03T20:37:36.660Z,42.75
2017-11-03T20:40:02.689Z,44.38
2017-11-03T20:42:28.716Z,38.40
2017-11-03T20:44:55.003Z,41.92
2017-11-03T20:47:21.743Z,45.05
2017-11-03T20:49:48.460Z,54.28
2017-11-03T20:52:14.462Z,41.72
2017-11-03T20:54:40.458Z,43.53
2017-11-03T20:57:06.450Z,40.22
2017-11-03T20:59:32.666Z,43.40
2017-11-03T21:01:59.403Z,43.70
2017-11-03T21:04:33.204Z,47.75
2017-11-03T21:06:59.951Z,42.55
2017-11-03T21:09:26.748Z,44.33
2017-11-03T21:11:52.745Z,49.95
2017-11-03T21:14:19.042Z,47.55
2017-11-03T21:16:45.769Z,47.50
2017-11-03T21:19:11.750Z,49.70
2017-11-03T21:21:37.820Z,47.65
2017-11-03T21:24:04.543Z,49.38
2017-11-03T21:26:30.545Z,46.75
2017-11-03T21:28:56.553Z,44.80
2017-11-03T21:31:22.535Z,47.83
2017-11-03T21:33:49.277Z,49.15
2017-11-03T21:36:16.007Z,51.83
2017-11-03T21:38:42.750Z,50.00
2017-11-03T21:41:09.871Z,49.50
2017-11-03T21:43:35.871Z,49.63
2017-11-03T21:46:01.838Z,54.75
2017-11-03T21:48:28.578Z,52.42
2017-11-03T21:50:55.313Z,52.50
2017-11-03T21:53:22.060Z,50.95
2017-11-03T21:55:48.821Z,56.55
2017-11-03T21:58:14.826Z,54.73
2017-11-03T22:00:41.557Z,57.55
2017-11-03T22:03:08.310Z,58.67
2017-11-03T22:05:35.082Z,56.08
2017-11-03T22:08:01.081Z,57.40
2017-11-03T22:10:27.046Z,55.47
2017-11-03T22:12:53.041Z,55.05
2017-11-03T22:15:19.066Z,57.20
2017-11-03T22:17:45.049Z,56.53
2017-11-03T22:20:11.781Z,55.88
2017-11-03T22:22:38.649Z,54.90
2017-11-03T22:25:04.678Z,58.45
2017-11-03T22:27:30.688Z,52.40
2017-11-03T22:29:57.005Z,57.00
2017-11-03T22:32:23.733Z,64.65
2017-11-03T22:34:49.701Z,59.93
2017-11-03T22:37:15.758Z,67.55
2017-11-03T22:39:41.754Z,62.00
2017-11-03T22:42:07.802Z,63.78
2017-11-03T22:44:34.154Z,60.33
2017-11-03T22:47:00.872Z,60.90
2017-11-03T22:49:26.864Z,61.50
2017-11-03T22:51:53.148Z,57.63
2017-11-03T22:54:19.877Z,63.97
2017-11-03T22:56:45.846Z,57.53
2017-11-03T22:59:12.138Z,59.28
2017-11-03T23:01:38.897Z,62.00
2017-11-03T23:04:04.906Z,64.03
2017-11-03T23:06:31.645Z,58.38
2017-11-03T23:08:58.385Z,60.33
2017-11-03T23:11:24.366Z,60.65
2017-11-03T23:13:50.363Z,68.78
2017-11-03T23:16:16.338Z,64.28
2017-11-03T23:18:42.342Z,61.65
2017-11-03T23:21:08.346Z,70.65
2017-11-03T23:23:34.337Z,69.85
2017-11-03T23:26:00.311Z,66.70
2017-11-03T23:28:26.325Z,66.62
2017-11-03T23:30:52.306Z,71.33
2017-11-03T23:33:18.298Z,67.32
2017-11-03T23:35:45.027Z,60.03
2017-11-03T23:38:11.031Z,69.85
2017-11-03T23:40:36.998Z,66.97
2017-11-03T23:43:03.003Z,65.18
2017-11-03T23:45:29.723Z,63.60
2017-11-03T23:47:55.713Z,66.87
2017-11-03T23:50:21.781Z,65.37
2017-11-03T23:52:47.755Z,67.40
2017-11-03T23:55:13.786Z,66.32
2017-11-03T23:57:39.975Z,66.28
